createdAt,value
2018-04-01T00:00:15.909Z,990.64
2018-04-01T00:00:56.445Z,990.67
2018-04-01T00:01:37.059Z,990.69
2018-04-01T00:02:17.556Z,990.68
2018-04-01T00:02:58.070Z,990.74
2018-04-01T00:03:38.570Z,990.73
2018-04-01T00:04:19.066Z,990.72
2018-04-01T00:04:59.584Z,990.77
2018-04-01T00:05:40.105Z,990.76
2018-04-01T00:06:20.614Z,990.79
2018-04-01T00:07:01.217Z,990.84
2018-04-01T00:07:41.694Z,990.85
2018-04-01T00:08:22.214Z,990.87
2018-04-01T00:09:02.806Z,990.88
2018-04-01T00:09:43.314Z,990.93
2018-04-01T00:10:23.792Z,990.9
2018-04-01T00:11:04.301Z,990.9
2018-04-01T00:11:44.832Z,990.87
2018-04-01T00:12:25.314Z,990.95
2018-04-01T00:13:05.813Z,990.93
2018-04-01T00:13:46.483Z,990.98
2018-04-01T00:14:26.822Z,990.97
2018-04-01T00:15:07.376Z,991
2018-04-01T00:15:47.883Z,991.02
2018-04-01T00:16:28.340Z,990.93
2018-04-01T00:17:08.852Z,991
2018-04-01T00:17:49.344Z,990.97
2018-04-01T00:18:29.822Z,991.03
2018-04-01T00:19:10.299Z,991.02
2018-04-01T00:19:50.781Z,991.08
2018-04-01T00:20:31.286Z,991.1
2018-04-01T00:21:11.810Z,991.06
2018-04-01T00:21:52.383Z,991.06
2018-04-01T00:22:32.796Z,991.1
2018-04-01T00:23:13.266Z,991.11
2018-04-01T00:23:53.790Z,991.11
2018-04-01T00:24:34.272Z,991.11
2018-04-01T00:25:14.778Z,991.14
2018-04-01T00:25:55.242Z,991.12
2018-04-01T00:26:35.707Z,991.14
2018-04-01T00:27:16.230Z,991.17
2018-04-01T00:27:56.718Z,991.17
2018-04-01T00:28:37.224Z,991.21
2018-04-01T00:29:17.700Z,991.22
2018-04-01T00:29:58.225Z,991.25
2018-04-01T00:30:38.671Z,991.26
2018-04-01T00:31:19.162Z,991.36
2018-04-01T00:31:59.661Z,991.35
2018-04-01T00:32:40.179Z,991.34
2018-04-01T00:33:20.610Z,991.32
2018-04-01T00:34:01.084Z,991.36
2018-04-01T00:34:41.605Z,991.39
2018-04-01T00:35:22.142Z,991.36
2018-04-01T00:36:02.596Z,991.43
2018-04-01T00:36:43.110Z,991.39
2018-04-01T00:37:23.609Z,991.47
2018-04-01T00:38:04.115Z,991.48
2018-04-01T00:38:44.626Z,991.47
2018-04-01T00:39:25.135Z,991.49
2018-04-01T00:40:05.631Z,991.52
2018-04-01T00:40:46.106Z,991.51
2018-04-01T00:41:26.606Z,991.56
2018-04-01T00:42:07.120Z,991.52
2018-04-01T00:42:47.655Z,991.55
2018-04-01T00:43:28.181Z,991.55
2018-04-01T00:44:08.731Z,991.63
2018-04-01T00:44:49.275Z,991.63
2018-04-01T00:45:29.759Z,991.64
2018-04-01T00:46:10.275Z,991.66
2018-04-01T00:46:50.769Z,991.67
2018-04-01T00:47:31.273Z,991.66
2018-04-01T00:48:11.792Z,991.7
2018-04-01T00:48:52.566Z,991.71
2018-04-01T00:49:33.072Z,991.7
2018-04-01T00:50:13.579Z,991.7
2018-04-01T00:52:13.515Z,991.81
2018-04-01T00:52:54.012Z,991.77
2018-04-01T00:53:34.519Z,991.77
2018-04-01T00:54:15.034Z,991.78
2018-04-01T00:54:55.584Z,991.76
2018-04-01T00:55:36.096Z,991.76
2018-04-01T00:56:16.574Z,991.78
2018-04-01T00:56:57.083Z,991.77
2018-04-01T00:57:37.587Z,991.81
2018-04-01T00:58:18.168Z,991.75
2018-04-01T00:58:58.692Z,991.81
2018-04-01T00:59:39.195Z,991.79
2018-04-01T01:00:19.683Z,991.82
2018-04-01T01:01:00.181Z,991.82
2018-04-01T01:01:40.768Z,991.82
2018-04-01T01:02:21.256Z,991.79
2018-04-01T01:03:01.752Z,991.81
2018-04-01T01:03:42.275Z,991.83
2018-04-01T01:04:22.743Z,991.83
2018-04-01T01:05:03.371Z,991.85
2018-04-01T01:05:43.858Z,991.85
2018-04-01T01:06:24.371Z,991.84
2018-04-01T01:07:04.885Z,991.86
2018-04-01T01:07:45.359Z,991.9
2018-04-01T01:08:25.872Z,991.86
2018-04-01T01:09:06.522Z,991.86
2018-04-01T01:09:47.070Z,991.84
2018-04-01T01:10:27.580Z,991.9
2018-04-01T01:11:08.076Z,991.83
2018-04-01T01:11:48.574Z,991.86
2018-04-01T01:12:29.091Z,991.89
2018-04-01T01:13:09.586Z,991.87
2018-04-01T01:13:50.083Z,991.87
2018-04-01T01:14:30.644Z,991.81
2018-04-01T01:15:11.140Z,991.86
2018-04-01T01:15:51.675Z,991.84
2018-04-01T01:16:32.202Z,991.83
2018-04-01T01:17:12.639Z,991.84
2018-04-01T01:17:53.151Z,991.87
2018-04-01T01:18:33.704Z,991.81
2018-04-01T01:19:14.205Z,991.88
2018-04-01T01:19:54.693Z,991.87
2018-04-01T01:20:35.234Z,991.82
2018-04-01T01:21:15.708Z,991.87
2018-04-01T01:21:56.237Z,991.87
2018-04-01T01:22:36.716Z,991.87
2018-04-01T01:23:17.229Z,991.94
2018-04-01T01:23:57.771Z,991.84
2018-04-01T01:24:38.237Z,991.88
2018-04-01T01:25:18.808Z,991.84
2018-04-01T01:25:59.302Z,991.86
2018-04-01T01:26:39.801Z,991.83
2018-04-01T01:27:20.313Z,991.85
2018-04-01T01:28:00.776Z,991.88
2018-04-01T01:28:41.288Z,991.84
2018-04-01T01:29:21.782Z,991.85
2018-04-01T01:30:02.292Z,991.9
2018-04-01T01:30:42.822Z,991.87
2018-04-01T01:31:23.351Z,991.91
2018-04-01T01:32:03.800Z,991.91
2018-04-01T01:32:44.411Z,991.87
2018-04-01T01:33:24.953Z,991.96
2018-04-01T01:34:05.501Z,992
2018-04-01T01:34:45.942Z,991.92
2018-04-01T01:35:26.423Z,991.97
2018-04-01T01:36:06.908Z,992.02
2018-04-01T01:36:47.389Z,991.99
2018-04-01T01:37:27.900Z,991.98
2018-04-01T01:38:08.450Z,991.96
2018-04-01T01:38:48.962Z,992
2018-04-01T01:39:29.469Z,991.99
2018-04-01T01:40:09.969Z,992.01
2018-04-01T01:40:50.691Z,992.05
2018-04-01T01:41:31.190Z,992.01
2018-04-01T01:42:11.701Z,992.03
2018-04-01T01:42:52.214Z,992.01
2018-04-01T01:43:32.704Z,992.02
2018-04-01T01:44:13.237Z,992.05
2018-04-01T01:44:53.752Z,992.07
2018-04-01T01:45:34.303Z,992.1
2018-04-01T01:46:14.849Z,992.06
2018-04-01T01:46:55.265Z,992.09
2018-04-01T01:47:35.757Z,992.04
2018-04-01T01:48:16.259Z,992.09
2018-04-01T01:48:56.767Z,992.03
2018-04-01T01:49:37.345Z,992.1
2018-04-01T01:50:17.906Z,992.07
2018-04-01T01:50:58.413Z,992.07
2018-04-01T01:51:38.916Z,992.1
2018-04-01T01:52:19.441Z,992.09
2018-04-01T01:52:59.957Z,992.08
2018-04-01T01:53:40.565Z,992.14
2018-04-01T01:54:21.080Z,992.11
2018-04-01T01:55:01.653Z,992.14
2018-04-01T01:55:42.163Z,992.13
2018-04-01T01:56:22.660Z,992.09
2018-04-01T01:57:03.262Z,992.12
2018-04-01T01:57:43.715Z,992.08
2018-04-01T01:58:24.207Z,992.11
2018-04-01T01:59:04.743Z,992.15
2018-04-01T01:59:45.241Z,992.13
2018-04-01T02:00:25.783Z,992.1
2018-04-01T02:01:06.313Z,992.11
2018-04-01T02:01:46.848Z,992.16
2018-04-01T02:02:27.310Z,992.2
2018-04-01T02:03:07.814Z,992.15
2018-04-01T02:03:48.293Z,992.16
2018-04-01T02:04:28.801Z,992.15
2018-04-01T02:05:09.318Z,992.15
2018-04-01T02:05:49.826Z,992.13
2018-04-01T02:06:30.356Z,992.13
2018-04-01T02:07:10.869Z,992.18
2018-04-01T02:07:51.364Z,992.15
2018-04-01T02:08:31.960Z,992.2
2018-04-01T02:09:12.367Z,992.15
2018-04-01T02:09:52.914Z,992.15
2018-04-01T02:10:33.413Z,992.15
2018-04-01T02:11:13.913Z,992.19
2018-04-01T02:11:54.407Z,992.18
2018-04-01T02:12:34.907Z,992.19
2018-04-01T02:13:15.416Z,992.18
2018-04-01T02:13:55.927Z,992.22
2018-04-01T02:14:36.407Z,992.27
2018-04-01T02:15:16.873Z,992.22
2018-04-01T02:15:57.405Z,992.21
2018-04-01T02:16:37.941Z,992.21
2018-04-01T02:17:18.419Z,992.21
2018-04-01T02:17:58.923Z,992.21
2018-04-01T02:18:39.438Z,992.27
2018-04-01T02:19:19.936Z,992.25
2018-04-01T02:20:00.430Z,992.24
2018-04-01T02:20:41.048Z,992.21
2018-04-01T02:21:21.537Z,992.26
2018-04-01T02:22:02.057Z,992.26
2018-04-01T02:22:42.580Z,992.29
2018-04-01T02:23:23.087Z,992.31
2018-04-01T02:24:03.598Z,992.31
2018-04-01T02:24:44.096Z,992.31
2018-04-01T02:25:24.584Z,992.29
2018-04-01T02:26:05.083Z,992.26
2018-04-01T02:26:45.598Z,992.26
2018-04-01T02:27:26.097Z,992.3
2018-04-01T02:28:06.597Z,992.24
2018-04-01T02:28:47.114Z,992.28
2018-04-01T02:29:27.622Z,992.26
2018-04-01T02:30:08.137Z,992.23
2018-04-01T02:30:48.634Z,992.32
2018-04-01T02:31:29.145Z,992.27
2018-04-01T02:32:09.644Z,992.27
2018-04-01T02:32:50.149Z,992.3
2018-04-01T02:33:30.643Z,992.3
2018-04-01T02:34:11.155Z,992.32
2018-04-01T02:34:51.687Z,992.28
2018-04-01T02:35:32.172Z,992.3
2018-04-01T02:36:12.695Z,992.3
2018-04-01T02:36:53.228Z,992.3
2018-04-01T02:37:33.696Z,992.32
2018-04-01T02:38:14.151Z,992.36
2018-04-01T02:38:54.670Z,992.35
2018-04-01T02:39:35.189Z,992.34
2018-04-01T02:40:15.638Z,992.37
2018-04-01T02:40:56.147Z,992.34
2018-04-01T02:41:36.663Z,992.32
2018-04-01T02:42:17.164Z,992.38
2018-04-01T02:42:57.641Z,992.36
2018-04-01T02:43:38.136Z,992.33
2018-04-01T02:44:18.648Z,992.37
2018-04-01T02:44:59.130Z,992.35
2018-04-01T02:45:39.652Z,992.35
2018-04-01T02:46:20.167Z,992.33
2018-04-01T02:47:00.675Z,992.34
2018-04-01T02:47:41.163Z,992.39
2018-04-01T02:48:21.678Z,992.37
2018-04-01T02:49:02.194Z,992.38
2018-04-01T02:51:00.381Z,992.38
2018-04-01T02:51:40.891Z,992.37
2018-04-01T02:52:21.580Z,992.42
2018-04-01T02:53:02.050Z,992.4
2018-04-01T02:53:42.544Z,992.41
2018-04-01T02:54:23.066Z,992.38
2018-04-01T02:55:03.593Z,992.36
2018-04-01T02:55:44.089Z,992.38
2018-04-01T02:56:24.607Z,992.39
2018-04-01T02:57:05.108Z,992.37
2018-04-01T02:57:45.621Z,992.37
2018-04-01T02:58:26.110Z,992.39
2018-04-01T02:59:06.619Z,992.46
2018-04-01T02:59:47.114Z,992.49
2018-04-01T03:00:27.653Z,992.42
2018-04-01T03:01:08.113Z,992.45
2018-04-01T03:01:48.604Z,992.49
2018-04-01T03:02:29.119Z,992.53
2018-04-01T03:03:09.711Z,992.53
2018-04-01T03:03:50.131Z,992.5
2018-04-01T03:04:30.644Z,992.47
2018-04-01T03:05:11.146Z,992.49
2018-04-01T03:05:51.685Z,992.53
2018-04-01T03:06:32.139Z,992.56
2018-04-01T03:07:12.630Z,992.52
2018-04-01T03:07:53.239Z,992.49
2018-04-01T03:08:33.718Z,992.52
2018-04-01T03:09:14.239Z,992.52
2018-04-01T03:09:54.745Z,992.57
2018-04-01T03:10:35.256Z,992.57
2018-04-01T03:11:15.758Z,992.55
2018-04-01T03:11:56.250Z,992.63
2018-04-01T03:12:36.749Z,992.61
2018-04-01T03:13:17.260Z,992.64
2018-04-01T03:13:57.763Z,992.66
2018-04-01T03:14:38.265Z,992.64
2018-04-01T03:15:18.732Z,992.62
2018-04-01T03:15:59.247Z,992.6
2018-04-01T03:16:39.721Z,992.62
2018-04-01T03:17:20.237Z,992.56
2018-04-01T03:18:00.713Z,992.63
2018-04-01T03:18:41.190Z,992.59
2018-04-01T03:19:21.689Z,992.64
2018-04-01T03:20:02.205Z,992.59
2018-04-01T03:20:42.700Z,992.62
2018-04-01T03:21:23.217Z,992.65
2018-04-01T03:22:03.748Z,992.7
2018-04-01T03:22:44.237Z,992.62
2018-04-01T03:23:24.736Z,992.73
2018-04-01T03:24:05.190Z,992.7
2018-04-01T03:24:45.772Z,992.68
2018-04-01T03:25:26.215Z,992.76
2018-04-01T03:26:06.729Z,992.73
2018-04-01T03:26:47.232Z,992.74
2018-04-01T03:27:27.722Z,992.7
2018-04-01T03:28:08.221Z,992.68
2018-04-01T03:28:49.633Z,992.74
2018-04-01T03:29:30.137Z,992.78
2018-04-01T03:30:10.637Z,992.77
2018-04-01T03:30:51.148Z,992.76
2018-04-01T03:31:31.713Z,992.79
2018-04-01T03:32:12.198Z,992.71
2018-04-01T03:32:52.698Z,992.76
2018-04-01T03:33:33.188Z,992.76
2018-04-01T03:34:13.676Z,992.75
2018-04-01T03:34:54.188Z,992.77
2018-04-01T03:35:34.702Z,992.72
2018-04-01T03:36:15.198Z,992.73
2018-04-01T03:36:55.706Z,992.72
2018-04-01T03:37:36.231Z,992.75
2018-04-01T03:38:16.761Z,992.79
2018-04-01T03:38:57.258Z,992.73
2018-04-01T03:39:37.778Z,992.78
2018-04-01T03:40:18.284Z,992.77
2018-04-01T03:40:58.782Z,992.83
2018-04-01T03:41:39.331Z,992.82
2018-04-01T03:42:19.821Z,992.85
2018-04-01T03:43:00.377Z,992.84
2018-04-01T03:43:40.874Z,992.87
2018-04-01T03:44:21.365Z,992.86
2018-04-01T03:45:01.863Z,992.9
2018-04-01T03:45:42.346Z,992.85
2018-04-01T03:46:22.888Z,992.87
2018-04-01T03:47:03.380Z,992.82
2018-04-01T03:47:43.889Z,992.88
2018-04-01T03:48:24.358Z,992.86
2018-04-01T03:49:04.890Z,992.85
2018-04-01T03:49:45.369Z,992.9
2018-04-01T03:50:26.103Z,992.89
2018-04-01T03:51:06.578Z,992.94
2018-04-01T03:51:47.040Z,992.93
2018-04-01T03:52:27.524Z,992.93
2018-04-01T03:53:08.046Z,992.97
2018-04-01T03:53:48.514Z,992.95
2018-04-01T03:54:28.978Z,993.03
2018-04-01T03:55:09.518Z,992.97
2018-04-01T03:55:49.947Z,992.97
2018-04-01T03:56:30.456Z,992.95
2018-04-01T03:57:10.953Z,992.99
2018-04-01T03:57:51.480Z,992.98
2018-04-01T03:58:31.943Z,993.02
2018-04-01T03:59:12.507Z,993.03
2018-04-01T03:59:52.976Z,993
2018-04-01T04:00:33.457Z,993
2018-04-01T04:01:13.935Z,993.01
2018-04-01T04:01:54.429Z,993
2018-04-01T04:02:34.929Z,993.02
2018-04-01T04:03:15.516Z,993.04
2018-04-01T04:03:56.031Z,992.99
2018-04-01T04:04:36.509Z,992.97
2018-04-01T04:05:17.027Z,992.99
2018-04-01T04:05:57.537Z,993.03
2018-04-01T04:06:38.140Z,993.08
2018-04-01T04:07:18.642Z,993.05
2018-04-01T04:07:59.126Z,993.08
2018-04-01T04:08:39.637Z,993.12
2018-04-01T04:09:20.124Z,993.1
2018-04-01T04:10:00.621Z,993.13
2018-04-01T04:10:41.118Z,993.13
2018-04-01T04:11:21.644Z,993.05
2018-04-01T04:12:02.120Z,993.1
2018-04-01T04:12:42.612Z,993.12
2018-04-01T04:13:23.075Z,993.15
2018-04-01T04:14:03.599Z,993.14
2018-04-01T04:14:44.064Z,993.13
2018-04-01T04:15:24.538Z,993.18
2018-04-01T04:16:04.998Z,993.17
2018-04-01T04:16:45.497Z,993.13
2018-04-01T04:17:26.043Z,993.17
2018-04-01T04:18:06.581Z,993.16
2018-04-01T04:18:47.048Z,993.15
2018-04-01T04:19:27.520Z,993.22
2018-04-01T04:20:08.029Z,993.22
2018-04-01T04:20:48.522Z,993.23
2018-04-01T04:21:29.027Z,993.29
2018-04-01T04:22:09.543Z,993.29
2018-04-01T04:22:50.052Z,993.31
2018-04-01T04:23:30.575Z,993.36
2018-04-01T04:24:11.140Z,993.33
2018-04-01T04:24:51.666Z,993.33
2018-04-01T04:25:32.179Z,993.35
2018-04-01T04:26:12.699Z,993.36
2018-04-01T04:26:53.217Z,993.32
2018-04-01T04:27:33.741Z,993.38
2018-04-01T04:28:14.268Z,993.41
2018-04-01T04:28:54.764Z,993.45
2018-04-01T04:29:35.312Z,993.41
2018-04-01T04:30:15.757Z,993.44
2018-04-01T04:30:56.242Z,993.41
2018-04-01T04:31:36.772Z,993.46
2018-04-01T04:32:17.239Z,993.48
2018-04-01T04:32:57.772Z,993.51
2018-04-01T04:33:38.240Z,993.46
2018-04-01T04:34:18.796Z,993.5
2018-04-01T04:34:59.316Z,993.47
2018-04-01T04:35:39.812Z,993.43
2018-04-01T04:36:20.310Z,993.46
2018-04-01T04:37:00.835Z,993.48
2018-04-01T04:37:41.330Z,993.52
2018-04-01T04:38:21.837Z,993.49
2018-04-01T04:39:02.346Z,993.45
2018-04-01T04:39:42.844Z,993.51
2018-04-01T04:40:23.480Z,993.51
2018-04-01T04:41:03.992Z,993.53
2018-04-01T04:41:44.541Z,993.53
2018-04-01T04:42:25.033Z,993.57
2018-04-01T04:43:05.535Z,993.58
2018-04-01T04:43:46.038Z,993.6
2018-04-01T04:44:26.537Z,993.63
2018-04-01T04:45:07.002Z,993.53
2018-04-01T04:45:47.483Z,993.59
2018-04-01T04:46:27.993Z,993.55
2018-04-01T04:47:08.492Z,993.63
2018-04-01T04:47:49.002Z,993.64
2018-04-01T04:48:29.544Z,993.61
2018-04-01T04:49:10.093Z,993.61
2018-04-01T04:49:50.597Z,993.6
2018-04-01T04:50:31.096Z,993.65
2018-04-01T04:51:11.582Z,993.64
2018-04-01T04:51:52.099Z,993.64
2018-04-01T04:52:32.612Z,993.61
2018-04-01T04:53:13.123Z,993.66
2018-04-01T04:53:53.625Z,993.64
2018-04-01T04:54:34.129Z,993.68
2018-04-01T04:55:14.646Z,993.66
2018-04-01T04:55:55.154Z,993.64
2018-04-01T04:56:35.661Z,993.71
2018-04-01T04:57:16.219Z,993.74
2018-04-01T04:57:56.699Z,993.66
2018-04-01T04:58:37.211Z,993.68
2018-04-01T04:59:17.676Z,993.7
2018-04-01T04:59:58.169Z,993.67
2018-04-01T05:00:38.699Z,993.73
2018-04-01T05:01:19.194Z,993.68
2018-04-01T05:01:59.677Z,993.68
2018-04-01T05:02:40.193Z,993.72
2018-04-01T05:03:20.693Z,993.72
2018-04-01T05:04:01.164Z,993.72
2018-04-01T05:04:41.671Z,993.75
2018-04-01T05:05:22.889Z,993.79
2018-04-01T05:06:02.720Z,993.76
2018-04-01T05:06:43.221Z,993.84
2018-04-01T05:07:23.756Z,993.8
2018-04-01T05:08:04.240Z,993.81
2018-04-01T05:08:44.719Z,993.8
2018-04-01T05:09:25.217Z,993.81
2018-04-01T05:10:05.719Z,993.82
2018-04-01T05:10:47.095Z,993.79
2018-04-01T05:11:27.577Z,993.87
2018-04-01T05:12:08.107Z,993.87
2018-04-01T05:12:48.596Z,993.87
2018-04-01T05:13:29.088Z,993.86
2018-04-01T05:14:09.569Z,993.89
2018-04-01T05:14:50.062Z,993.93
2018-04-01T05:15:30.582Z,993.89
2018-04-01T05:16:11.091Z,993.9
2018-04-01T05:16:51.654Z,993.94
2018-04-01T05:17:32.195Z,993.89
2018-04-01T05:18:12.683Z,993.92
2018-04-01T05:18:53.203Z,993.92
2018-04-01T05:19:33.704Z,993.96
2018-04-01T05:20:14.231Z,993.91
2018-04-01T05:20:54.744Z,993.96
2018-04-01T05:21:35.372Z,993.9
2018-04-01T05:22:15.855Z,993.93
2018-04-01T05:22:56.340Z,994
2018-04-01T05:23:36.847Z,993.97
2018-04-01T05:24:17.381Z,994
2018-04-01T05:24:57.934Z,994
2018-04-01T05:25:38.395Z,994.03
2018-04-01T05:26:18.940Z,994.04
2018-04-01T05:26:59.386Z,994
2018-04-01T05:27:39.873Z,993.96
2018-04-01T05:28:20.403Z,994.02
2018-04-01T05:29:00.875Z,994.03
2018-04-01T05:29:41.345Z,994.06
2018-04-01T05:30:21.872Z,994.03
2018-04-01T05:31:02.375Z,994.07
2018-04-01T05:31:42.871Z,994.06
2018-04-01T05:32:23.376Z,994.07
2018-04-01T05:33:03.903Z,994.1
2018-04-01T05:33:44.404Z,994.12
2018-04-01T05:34:24.884Z,994.15
2018-04-01T05:35:05.383Z,994.14
2018-04-01T05:35:45.870Z,994.16
2018-04-01T05:36:26.384Z,994.11
2018-04-01T05:37:06.862Z,994.15
2018-04-01T05:37:47.352Z,994.22
2018-04-01T05:38:27.859Z,994.15
2018-04-01T05:39:08.340Z,994.2
2018-04-01T05:39:48.869Z,994.18
2018-04-01T05:40:29.322Z,994.18
2018-04-01T05:41:09.976Z,994.19
2018-04-01T05:41:50.444Z,994.15
2018-04-01T05:42:30.968Z,994.19
2018-04-01T05:43:11.458Z,994.23
2018-04-01T05:43:51.966Z,994.24
2018-04-01T05:44:32.468Z,994.18
2018-04-01T05:45:12.909Z,994.22
2018-04-01T05:45:53.446Z,994.19
2018-04-01T05:46:33.883Z,994.19
2018-04-01T05:47:14.370Z,994.19
2018-04-01T05:47:54.848Z,994.19
2018-04-01T05:48:35.359Z,994.22
2018-04-01T05:49:15.894Z,994.22
2018-04-01T05:49:56.364Z,994.27
2018-04-01T05:50:36.810Z,994.24
2018-04-01T05:51:17.270Z,994.26
2018-04-01T05:51:57.753Z,994.25
2018-04-01T05:52:38.259Z,994.27
2018-04-01T05:53:18.774Z,994.26
2018-04-01T05:53:59.271Z,994.29
2018-04-01T05:54:39.794Z,994.28
2018-04-01T05:55:20.284Z,994.27
2018-04-01T05:56:00.767Z,994.31
2018-04-01T05:56:41.292Z,994.3
2018-04-01T05:57:21.741Z,994.3
2018-04-01T05:58:02.253Z,994.24
2018-04-01T05:58:42.736Z,994.28
2018-04-01T05:59:23.199Z,994.26
2018-04-01T06:00:03.697Z,994.29
2018-04-01T06:00:44.233Z,994.26
2018-04-01T06:01:24.712Z,994.21
2018-04-01T06:02:05.248Z,994.2
2018-04-01T06:02:45.695Z,994.22
2018-04-01T06:03:26.169Z,994.28
2018-04-01T06:04:06.697Z,994.3
2018-04-01T06:04:47.283Z,994.3
2018-04-01T06:05:27.676Z,994.31
2018-04-01T06:06:08.164Z,994.31
2018-04-01T06:06:48.751Z,994.38
2018-04-01T06:07:29.296Z,994.36
2018-04-01T06:08:09.809Z,994.35
2018-04-01T06:08:50.268Z,994.38
2018-04-01T06:09:30.745Z,994.39
2018-04-01T06:10:11.280Z,994.37
2018-04-01T06:10:51.793Z,994.37
2018-04-01T06:11:32.295Z,994.39
2018-04-01T06:12:12.840Z,994.44
2018-04-01T06:12:53.277Z,994.43
2018-04-01T06:13:33.771Z,994.41
2018-04-01T06:14:14.280Z,994.39
2018-04-01T06:14:54.799Z,994.4
2018-04-01T06:15:35.346Z,994.42
2018-04-01T06:16:15.804Z,994.51
2018-04-01T06:16:56.265Z,994.44
2018-04-01T06:17:36.756Z,994.49
2018-04-01T06:18:17.254Z,994.48
2018-04-01T06:18:57.774Z,994.51
2018-04-01T06:19:38.293Z,994.5
2018-04-01T06:20:18.737Z,994.51
2018-04-01T06:20:59.231Z,994.52
2018-04-01T06:21:39.709Z,994.49
2018-04-01T06:22:20.185Z,994.49
2018-04-01T06:23:00.700Z,994.47
2018-04-01T06:23:41.198Z,994.48
2018-04-01T06:24:21.714Z,994.49
2018-04-01T06:25:02.192Z,994.54
2018-04-01T06:25:42.688Z,994.51
2018-04-01T06:26:23.235Z,994.54
2018-04-01T06:27:03.732Z,994.58
2018-04-01T06:27:44.235Z,994.6
2018-04-01T06:28:24.690Z,994.54
2018-04-01T06:29:05.185Z,994.58
2018-04-01T06:29:45.672Z,994.61
2018-04-01T06:30:26.178Z,994.61
2018-04-01T06:31:06.661Z,994.61
2018-04-01T06:31:47.168Z,994.62
2018-04-01T06:32:27.625Z,994.62
2018-04-01T06:33:08.136Z,994.64
2018-04-01T06:33:48.597Z,994.68
2018-04-01T06:34:29.113Z,994.71
2018-04-01T06:35:09.607Z,994.64
2018-04-01T06:35:50.114Z,994.69
2018-04-01T06:36:30.619Z,994.64
2018-04-01T06:37:11.918Z,994.68
2018-04-01T06:37:51.567Z,994.7
2018-04-01T06:38:32.917Z,994.72
2018-04-01T06:39:13.459Z,994.74
2018-04-01T06:39:54.016Z,994.73
2018-04-01T06:40:34.431Z,994.74
2018-04-01T06:41:15.401Z,994.76
2018-04-01T06:41:55.912Z,994.79
2018-04-01T06:42:36.391Z,994.76
2018-04-01T06:43:16.868Z,994.72
2018-04-01T06:43:57.315Z,994.77
2018-04-01T06:44:37.818Z,994.79
2018-04-01T06:45:18.311Z,994.84
2018-04-01T06:45:58.813Z,994.84
2018-04-01T06:46:39.273Z,994.81
2018-04-01T06:47:19.723Z,994.85
2018-04-01T06:48:00.478Z,994.8
2018-04-01T06:48:41.016Z,994.82
2018-04-01T06:49:21.519Z,994.8
2018-04-01T06:50:01.933Z,994.81
2018-04-01T06:50:42.463Z,994.86
2018-04-01T06:51:22.978Z,994.85
2018-04-01T06:52:03.455Z,994.79
2018-04-01T06:52:43.952Z,994.89
2018-04-01T06:53:24.396Z,994.93
2018-04-01T06:54:04.925Z,994.88
2018-04-01T06:54:45.389Z,994.86
2018-04-01T06:55:25.899Z,994.9
2018-04-01T06:56:06.365Z,994.86
2018-04-01T06:56:46.872Z,994.9
2018-04-01T06:57:27.339Z,994.88
2018-04-01T06:58:07.783Z,994.85
2018-04-01T06:58:48.284Z,994.99
2018-04-01T06:59:28.817Z,994.92
2018-04-01T07:00:09.390Z,994.88
2018-04-01T07:00:49.848Z,994.89
2018-04-01T07:01:30.368Z,994.82
2018-04-01T07:02:10.847Z,994.88
2018-04-01T07:02:51.264Z,994.93
2018-04-01T07:03:31.846Z,994.92
2018-04-01T07:04:12.311Z,994.88
2018-04-01T07:04:52.906Z,994.86
2018-04-01T07:05:33.289Z,994.82
2018-04-01T07:06:13.784Z,994.86
2018-04-01T07:06:54.276Z,994.91
2018-04-01T07:07:34.781Z,994.95
2018-04-01T07:08:15.287Z,994.92
2018-04-01T07:08:55.739Z,994.97
2018-04-01T07:09:36.231Z,994.88
2018-04-01T07:10:16.734Z,994.98
2018-04-01T07:10:57.245Z,995.04
2018-04-01T07:11:37.800Z,995.01
2018-04-01T07:12:18.266Z,995.02
2018-04-01T07:12:58.741Z,995.03
2018-04-01T07:13:39.239Z,995.09
2018-04-01T07:14:19.797Z,995.05
2018-04-01T07:15:00.243Z,995.11
2018-04-01T07:15:40.787Z,995.14
2018-04-01T07:16:21.277Z,995.09
2018-04-01T07:17:01.789Z,995.13
2018-04-01T07:17:42.279Z,995.14
2018-04-01T07:18:22.742Z,995.14
2018-04-01T07:19:03.309Z,995.22
2018-04-01T07:19:43.779Z,995.22
2018-04-01T07:20:24.290Z,995.21
2018-04-01T07:21:04.771Z,995.11
2018-04-01T07:21:45.246Z,995.14
2018-04-01T07:22:25.732Z,995.25
2018-04-01T07:23:06.271Z,995.23
2018-04-01T07:23:46.916Z,995.26
2018-04-01T07:24:27.422Z,995.2
2018-04-01T07:25:07.894Z,995.28
2018-04-01T07:25:48.404Z,995.23
2018-04-01T07:26:28.920Z,995.25
2018-04-01T07:27:09.366Z,995.24
2018-04-01T07:27:49.868Z,995.32
2018-04-01T07:28:30.356Z,995.28
2018-04-01T07:29:10.880Z,995.29
2018-04-01T07:29:51.345Z,995.31
2018-04-01T07:30:31.842Z,995.27
2018-04-01T07:31:12.415Z,995.26
2018-04-01T07:31:52.812Z,995.3
2018-04-01T07:32:33.315Z,995.33
2018-04-01T07:33:13.815Z,995.41
2018-04-01T07:33:54.316Z,995.37
2018-04-01T07:34:34.773Z,995.35
2018-04-01T07:35:15.240Z,995.34
2018-04-01T07:35:55.738Z,995.37
2018-04-01T07:36:36.273Z,995.35
2018-04-01T07:37:16.763Z,995.4
2018-04-01T07:37:57.273Z,995.45
2018-04-01T07:38:37.816Z,995.43
2018-04-01T07:39:18.258Z,995.39
2018-04-01T07:39:58.773Z,995.47
2018-04-01T07:40:39.243Z,995.42
2018-04-01T07:41:19.775Z,995.44
2018-04-01T07:42:00.243Z,995.39
2018-04-01T07:42:40.731Z,995.44
2018-04-01T07:43:21.219Z,995.47
2018-04-01T07:44:01.694Z,995.48
2018-04-01T07:44:42.209Z,995.49
2018-04-01T07:45:22.721Z,995.45
2018-04-01T07:46:03.189Z,995.48
2018-04-01T07:46:43.636Z,995.46
2018-04-01T07:47:24.154Z,995.51
2018-04-01T07:48:04.632Z,995.53
2018-04-01T07:48:45.161Z,995.55
2018-04-01T07:49:25.635Z,995.53
2018-04-01T07:50:06.247Z,995.53
2018-04-01T07:50:46.744Z,995.54
2018-04-01T07:51:27.239Z,995.58
2018-04-01T07:52:07.729Z,995.64
2018-04-01T07:52:48.193Z,995.56
2018-04-01T07:53:28.727Z,995.63
2018-04-01T07:54:09.166Z,995.63
2018-04-01T07:54:49.650Z,995.62
2018-04-01T07:55:30.182Z,995.56
2018-04-01T07:56:10.636Z,995.62
2018-04-01T07:56:51.143Z,995.65
2018-04-01T07:57:31.604Z,995.66
2018-04-01T07:58:12.168Z,995.68
2018-04-01T07:58:52.734Z,995.68
2018-04-01T07:59:33.187Z,995.65
2018-04-01T08:00:13.665Z,995.69
2018-04-01T08:00:54.172Z,995.67
2018-04-01T08:01:34.668Z,995.67
2018-04-01T08:02:15.176Z,995.68
2018-04-01T08:02:55.667Z,995.59
2018-04-01T08:03:36.172Z,995.74
2018-04-01T08:04:16.695Z,995.69
2018-04-01T08:04:57.182Z,995.68
2018-04-01T08:05:37.716Z,995.66
2018-04-01T08:06:18.183Z,995.69
2018-04-01T08:06:58.697Z,995.69
2018-04-01T08:07:39.208Z,995.72
2018-04-01T08:08:19.742Z,995.68
2018-04-01T08:09:00.245Z,995.68
2018-04-01T08:09:40.778Z,995.71
2018-04-01T08:10:21.306Z,995.72
2018-04-01T08:11:01.757Z,995.71
2018-04-01T08:11:42.263Z,995.75
2018-04-01T08:12:22.766Z,995.71
2018-04-01T08:13:03.334Z,995.74
2018-04-01T08:13:43.781Z,995.76
2018-04-01T08:14:24.305Z,995.77
2018-04-01T08:15:04.881Z,995.73
2018-04-01T08:15:45.404Z,995.73
2018-04-01T08:16:25.854Z,995.75
2018-04-01T08:17:06.366Z,995.75
2018-04-01T08:17:46.859Z,995.75
2018-04-01T08:18:27.398Z,995.78
2018-04-01T08:19:08.004Z,995.75
2018-04-01T08:19:48.418Z,995.74
2018-04-01T08:20:29.082Z,995.73
2018-04-01T08:21:09.574Z,995.8
2018-04-01T08:21:50.127Z,995.81
2018-04-01T08:22:30.673Z,995.77
2018-04-01T08:23:11.166Z,995.84
2018-04-01T08:23:51.671Z,995.78
2018-04-01T08:24:32.130Z,995.77
2018-04-01T08:25:12.662Z,995.79
2018-04-01T08:25:53.163Z,995.79
2018-04-01T08:26:33.705Z,995.78
2018-04-01T08:27:14.196Z,995.79
2018-04-01T08:27:54.700Z,995.78
2018-04-01T08:28:35.341Z,995.75
2018-04-01T08:29:15.831Z,995.81
2018-04-01T08:29:56.347Z,995.81